KSBP/SBP METAR and TAF weather

Enter ICAO airport designator
Station Type Date Time Source
KSBP METAR 2020/01/29 02:56 UTC NOAA

KSBP 290256Z 29007KT 10SM CLR 12/09 A3022 RMK AO2 SLP234 T01220089 58001


Station Type Date Time Source
KSBP Decoded METAR 2020/01/29 02:56 UTC NOAA

SAN LUIS OBISPO MC CHESNEY, CA, United States (KSBP) 35-14N 120-38W 59M
Jan 28, 2020 - 09:56 PM EST / 2020.01.29 0256 UTC
Wind: from the WNW (290 degrees) at 8 MPH (7 KT):0
Visibility: 10 mile(s):0
Sky conditions: clear
Temperature: 54.0 F (12.2 C)
Dew Point: 48.0 F (8.9 C)
Relative Humidity: 80%
Pressure (altimeter): 30.22 in. Hg (1023 hPa)
Pressure tendency: 0.00 inches (0.1 hPa) lower than three hours ago
ob: KSBP 290256Z 29007KT 10SM CLR 12/09 A3022 RMK AO2 SLP234 T01220089 58001
cycle: 3

Station Type Date Time Source
KSBP TAF 2020/01/28 18:45 UTC NOAA

TAF KSBP 281740Z 2818/2918 25005KT P6SM BKN250
FM282000 34015KT P6SM BKN250
FM290300 33007KT P6SM SKC
FM290900 33008KT P6SM BKN015
FM291400 33014KT P6SM BKN015

Example: see airport list